sensor_id;sensor_type;location;lat;lon;timestamp;temperature;humidity
46652;DHT22;32377;52.182;5.398;2022-09-12T00:02:00;14.80;99.90
46652;DHT22;32377;52.182;5.398;2022-09-12T00:04:26;14.70;99.90
46652;DHT22;32377;52.182;5.398;2022-09-12T00:06:52;14.70;99.90
46652;DHT22;32377;52.182;5.398;2022-09-12T00:09:18;14.70;99.90
46652;DHT22;32377;52.182;5.398;2022-09-12T00:11:45;14.70;99.90
46652;DHT22;32377;52.182;5.398;2022-09-12T00:14:14;14.70;99.90
46652;DHT22;32377;52.182;5.398;2022-09-12T00:16:40;14.70;99.90
46652;DHT22;32377;52.182;5.398;2022-09-12T00:19:06;14.70;99.90
46652;DHT22;32377;52.182;5.398;2022-09-12T00:21:33;14.70;99.90
46652;DHT22;32377;52.182;5.398;2022-09-12T00:23:59;14.70;99.90
46652;DHT22;32377;52.182;5.398;2022-09-12T00:26:25;14.70;99.90
46652;DHT22;32377;52.182;5.398;2022-09-12T00:28:51;14.60;99.90
46652;DHT22;32377;52.182;5.398;2022-09-12T00:31:20;14.60;99.90
46652;DHT22;32377;52.182;5.398;2022-09-12T00:33:48;14.60;99.90
46652;DHT22;32377;52.182;5.398;2022-09-12T00:36:19;14.60;99.90
46652;DHT22;32377;52.182;5.398;2022-09-12T00:38:46;14.60;99.90
46652;DHT22;32377;52.182;5.398;2022-09-12T00:41:25;14.60;99.90
46652;DHT22;32377;52.182;5.398;2022-09-12T00:43:53;14.60;99.90
46652;DHT22;32377;52.182;5.398;2022-09-12T00:49:07;14.60;99.90
46652;DHT22;32377;52.182;5.398;2022-09-12T00:51:36;14.60;99.90
46652;DHT22;32377;52.182;5.398;2022-09-12T00:54:07;14.50;99.90
46652;DHT22;32377;52.182;5.398;2022-09-12T00:56:35;14.50;99.90
46652;DHT22;32377;52.182;5.398;2022-09-12T00:59:06;14.50;99.90
46652;DHT22;32377;52.182;5.398;2022-09-12T01:01:34;14.50;99.90
46652;DHT22;32377;52.182;5.398;2022-09-12T01:04:00;14.50;99.90
46652;DHT22;32377;52.182;5.398;2022-09-12T01:06:33;14.50;99.90
46652;DHT22;32377;52.182;5.398;2022-09-12T01:09:00;14.50;99.90
46652;DHT22;32377;52.182;5.398;2022-09-12T01:11:30;14.40;99.90
46652;DHT22;32377;52.182;5.398;2022-09-12T01:13:56;14.40;99.90
46652;DHT22;32377;52.182;5.398;2022-09-12T01:16:22;14.30;99.90
46652;DHT22;32377;52.182;5.398;2022-09-12T01:18:54;14.30;99.90
46652;DHT22;32377;52.182;5.398;2022-09-12T01:21:36;14.30;99.90
46652;DHT22;32377;52.182;5.398;2022-09-12T01:27:11;14.30;99.90
46652;DHT22;32377;52.182;5.398;2022-09-12T01:32:42;14.20;99.90
46652;DHT22;32377;52.182;5.398;2022-09-12T01:35:19;14.20;99.90
46652;DHT22;32377;52.182;5.398;2022-09-12T01:38:08;14.20;99.90
46652;DHT22;32377;52.182;5.398;2022-09-12T01:43:34;14.20;99.90
46652;DHT22;32377;52.182;5.398;2022-09-12T01:46:20;14.10;99.90
46652;DHT22;32377;52.182;5.398;2022-09-12T01:48:49;14.10;99.90
46652;DHT22;32377;52.182;5.398;2022-09-12T01:51:26;14.10;99.90
46652;DHT22;32377;52.182;5.398;2022-09-12T01:54:26;14.10;99.90
46652;DHT22;32377;52.182;5.398;2022-09-12T01:56:58;14.10;99.90
46652;DHT22;32377;52.182;5.398;2022-09-12T01:59:32;14.00;99.90
46652;DHT22;32377;52.182;5.398;2022-09-12T02:02:11;14.00;99.90
46652;DHT22;32377;52.182;5.398;2022-09-12T02:07:22;14.00;99.90
46652;DHT22;32377;52.182;5.398;2022-09-12T02:12:46;14.00;99.90
46652;DHT22;32377;52.182;5.398;2022-09-12T02:15:14;13.90;99.90
46652;DHT22;32377;52.182;5.398;2022-09-12T02:17:43;13.90;99.90
46652;DHT22;32377;52.182;5.398;2022-09-12T02:20:25;13.90;99.90
46652;DHT22;32377;52.182;5.398;2022-09-12T02:22:55;13.90;99.90
46652;DHT22;32377;52.182;5.398;2022-09-12T02:25:23;13.90;99.90
46652;DHT22;32377;52.182;5.398;2022-09-12T02:27:54;13.80;99.90
46652;DHT22;32377;52.182;5.398;2022-09-12T02:30:21;13.80;99.90
46652;DHT22;32377;52.182;5.398;2022-09-12T02:40:53;13.80;99.90
46652;DHT22;32377;52.182;5.398;2022-09-12T02:43:19;13.80;99.90
46652;DHT22;32377;52.182;5.398;2022-09-12T02:45:45;13.70;99.90
46652;DHT22;32377;52.182;5.398;2022-09-12T02:48:15;13.70;99.90
46652;DHT22;32377;52.182;5.398;2022-09-12T02:50:41;13.70;99.90
46652;DHT22;32377;52.182;5.398;2022-09-12T02:53:08;13.70;99.90
46652;DHT22;32377;52.182;5.398;2022-09-12T02:55:36;13.70;99.90
46652;DHT22;32377;52.182;5.398;2022-09-12T02:58:06;13.70;99.90
46652;DHT22;32377;52.182;5.398;2022-09-12T03:06:35;13.70;99.90
46652;DHT22;32377;52.182;5.398;2022-09-12T03:09:17;13.70;99.90
46652;DHT22;32377;52.182;5.398;2022-09-12T03:12:11;13.70;99.90
46652;DHT22;32377;52.182;5.398;2022-09-12T03:17:49;13.70;99.90
46652;DHT22;32377;52.182;5.398;2022-09-12T03:20:50;13.60;99.90
46652;DHT22;32377;52.182;5.398;2022-09-12T03:23:23;13.60;99.90
46652;DHT22;32377;52.182;5.398;2022-09-12T03:26:21;13.60;99.90
46652;DHT22;32377;52.182;5.398;2022-09-12T03:28:51;13.60;99.90
46652;DHT22;32377;52.182;5.398;2022-09-12T03:31:18;13.60;99.90
46652;DHT22;32377;52.182;5.398;2022-09-12T03:33:44;13.50;99.90
46652;DHT22;32377;52.182;5.398;2022-09-12T03:36:16;13.50;99.90
46652;DHT22;32377;52.182;5.398;2022-09-12T03:38:42;13.50;99.90
46652;DHT22;32377;52.182;5.398;2022-09-12T03:41:08;13.50;99.90
46652;DHT22;32377;52.182;5.398;2022-09-12T03:43:33;13.50;99.90
46652;DHT22;32377;52.182;5.398;2022-09-12T03:45:59;13.50;99.90
46652;DHT22;32377;52.182;5.398;2022-09-12T03:48:24;13.40;99.90
46652;DHT22;32377;52.182;5.398;2022-09-12T03:50:50;13.50;99.90
46652;DHT22;32377;52.182;5.398;2022-09-12T03:53:16;13.40;99.90
46652;DHT22;32377;52.182;5.398;2022-09-12T03:55:41;13.40;99.90
46652;DHT22;32377;52.182;5.398;2022-09-12T03:58:07;13.40;99.90
46652;DHT22;32377;52.182;5.398;2022-09-12T04:00:32;13.40;99.90
46652;DHT22;32377;52.182;5.398;2022-09-12T04:02:58;13.40;99.90
46652;DHT22;32377;52.182;5.398;2022-09-12T04:05:24;13.40;99.90
46652;DHT22;32377;52.182;5.398;2022-09-12T04:07:50;13.40;99.90
46652;DHT22;32377;52.182;5.398;2022-09-12T04:10:15;13.40;99.90
46652;DHT22;32377;52.182;5.398;2022-09-12T04:12:41;13.40;99.90
46652;DHT22;32377;52.182;5.398;2022-09-12T04:15:07;13.40;99.90
46652;DHT22;32377;52.182;5.398;2022-09-12T04:17:34;13.40;99.90
46652;DHT22;32377;52.182;5.398;2022-09-12T04:19:59;13.50;99.90
46652;DHT22;32377;52.182;5.398;2022-09-12T04:22:25;13.50;99.90
46652;DHT22;32377;52.182;5.398;2022-09-12T04:24:51;13.60;99.90
46652;DHT22;32377;52.182;5.398;2022-09-12T04:27:16;13.70;99.90
46652;DHT22;32377;52.182;5.398;2022-09-12T04:29:42;13.70;99.90
46652;DHT22;32377;52.182;5.398;2022-09-12T04:32:08;13.70;99.90
46652;DHT22;32377;52.182;5.398;2022-09-12T04:34:34;13.70;99.90
46652;DHT22;32377;52.182;5.398;2022-09-12T04:36:59;13.70;99.90
46652;DHT22;32377;52.182;5.398;2022-09-12T04:39:25;13.70;99.90
46652;DHT22;32377;52.182;5.398;2022-09-12T04:41:51;13.70;99.90
46652;DHT22;32377;52.182;5.398;2022-09-12T04:44:16;13.80;99.90
46652;DHT22;32377;52.182;5.398;2022-09-12T04:46:45;13.70;99.90
46652;DHT22;32377;52.182;5.398;2022-09-12T04:49:12;13.70;99.90
46652;DHT22;32377;52.182;5.398;2022-09-12T04:51:40;13.80;99.90
46652;DHT22;32377;52.182;5.398;2022-09-12T04:54:12;13.80;99.90
46652;DHT22;32377;52.182;5.398;2022-09-12T04:56:41;13.80;99.90
46652;DHT22;32377;52.182;5.398;2022-09-12T04:59:07;13.90;99.90
46652;DHT22;32377;52.182;5.398;2022-09-12T05:01:34;13.90;99.90
46652;DHT22;32377;52.182;5.398;2022-09-12T05:04:00;13.90;99.90
46652;DHT22;32377;52.182;5.398;2022-09-12T05:06:36;14.00;99.90
46652;DHT22;32377;52.182;5.398;2022-09-12T05:09:04;14.00;99.90
46652;DHT22;32377;52.182;5.398;2022-09-12T05:11:36;14.00;99.90
46652;DHT22;32377;52.182;5.398;2022-09-12T05:14:02;14.00;99.90
46652;DHT22;32377;52.182;5.398;2022-09-12T05:16:28;14.00;99.90
46652;DHT22;32377;52.182;5.398;2022-09-12T05:18:55;14.10;99.90
46652;DHT22;32377;52.182;5.398;2022-09-12T05:21:22;14.10;99.90
46652;DHT22;32377;52.182;5.398;2022-09-12T05:23:54;14.10;99.90
46652;DHT22;32377;52.182;5.398;2022-09-12T05:26:21;14.10;99.90
46652;DHT22;32377;52.182;5.398;2022-09-12T05:28:48;14.10;99.90
46652;DHT22;32377;52.182;5.398;2022-09-12T05:31:19;14.10;99.90
46652;DHT22;32377;52.182;5.398;2022-09-12T05:33:46;14.10;99.90
46652;DHT22;32377;52.182;5.398;2022-09-12T05:36:15;14.10;99.90
46652;DHT22;32377;52.182;5.398;2022-09-12T05:38:42;14.10;99.90
46652;DHT22;32377;52.182;5.398;2022-09-12T05:41:10;14.10;99.90
46652;DHT22;32377;52.182;5.398;2022-09-12T05:43:38;14.20;99.90
46652;DHT22;32377;52.182;5.398;2022-09-12T05:46:08;14.10;99.90
46652;DHT22;32377;52.182;5.398;2022-09-12T05:48:35;14.10;99.90
46652;DHT22;32377;52.182;5.398;2022-09-12T05:51:06;14.20;99.90
46652;DHT22;32377;52.182;5.398;2022-09-12T05:53:34;14.10;99.90
46652;DHT22;32377;52.182;5.398;2022-09-12T05:56:11;14.20;99.90
46652;DHT22;32377;52.182;5.398;2022-09-12T05:58:40;14.20;99.90
46652;DHT22;32377;52.182;5.398;2022-09-12T06:01:14;14.10;99.90
46652;DHT22;32377;52.182;5.398;2022-09-12T06:03:45;14.10;99.90
46652;DHT22;32377;52.182;5.398;2022-09-12T06:06:12;14.10;99.90
46652;DHT22;32377;52.182;5.398;2022-09-12T06:08:39;14.00;99.90
46652;DHT22;32377;52.182;5.398;2022-09-12T06:11:06;14.00;99.90
46652;DHT22;32377;52.182;5.398;2022-09-12T06:13:33;14.00;99.90
46652;DHT22;32377;52.182;5.398;2022-09-12T06:16:07;14.10;99.90
46652;DHT22;32377;52.182;5.398;2022-09-12T06:18:34;14.10;99.90
46652;DHT22;32377;52.182;5.398;2022-09-12T06:23:29;14.10;99.90
46652;DHT22;32377;52.182;5.398;2022-09-12T06:25:54;14.20;99.90
46652;DHT22;32377;52.182;5.398;2022-09-12T06:28:20;14.20;99.90
46652;DHT22;32377;52.182;5.398;2022-09-12T06:30:45;14.20;99.90
46652;DHT22;32377;52.182;5.398;2022-09-12T06:33:11;14.20;99.90
46652;DHT22;32377;52.182;5.398;2022-09-12T06:35:37;14.20;99.90
46652;DHT22;32377;52.182;5.398;2022-09-12T06:38:03;14.30;99.90
46652;DHT22;32377;52.182;5.398;2022-09-12T06:40:30;14.30;99.90
46652;DHT22;32377;52.182;5.398;2022-09-12T06:42:56;14.30;99.90
46652;DHT22;32377;52.182;5.398;2022-09-12T06:45:21;14.40;99.90
46652;DHT22;32377;52.182;5.398;2022-09-12T06:47:47;14.50;99.90
46652;DHT22;32377;52.182;5.398;2022-09-12T06:50:12;14.60;99.90
46652;DHT22;32377;52.182;5.398;2022-09-12T06:52:38;14.60;99.90
46652;DHT22;32377;52.182;5.398;2022-09-12T06:55:04;14.60;99.90
46652;DHT22;32377;52.182;5.398;2022-09-12T06:57:30;14.70;99.90
46652;DHT22;32377;52.182;5.398;2022-09-12T06:59:57;14.80;99.90
46652;DHT22;32377;52.182;5.398;2022-09-12T07:02:23;14.90;99.90
46652;DHT22;32377;52.182;5.398;2022-09-12T07:04:50;14.90;99.90
46652;DHT22;32377;52.182;5.398;2022-09-12T07:07:16;15.10;99.90
46652;DHT22;32377;52.182;5.398;2022-09-12T07:09:42;15.10;99.90
46652;DHT22;32377;52.182;5.398;2022-09-12T07:12:07;15.30;99.90
46652;DHT22;32377;52.182;5.398;2022-09-12T07:14:33;15.40;99.90
46652;DHT22;32377;52.182;5.398;2022-09-12T07:16:58;15.60;99.90
46652;DHT22;32377;52.182;5.398;2022-09-12T07:19:24;15.70;99.90
46652;DHT22;32377;52.182;5.398;2022-09-12T07:21:49;15.80;99.90
46652;DHT22;32377;52.182;5.398;2022-09-12T07:24:15;15.80;99.90
46652;DHT22;32377;52.182;5.398;2022-09-12T07:26:40;15.80;99.90
46652;DHT22;32377;52.182;5.398;2022-09-12T07:29:08;15.90;99.90
46652;DHT22;32377;52.182;5.398;2022-09-12T07:31:37;16.00;99.90
46652;DHT22;32377;52.182;5.398;2022-09-12T07:34:05;16.10;99.90
46652;DHT22;32377;52.182;5.398;2022-09-12T07:36:31;16.30;99.90
46652;DHT22;32377;52.182;5.398;2022-09-12T07:38:56;16.40;99.90
46652;DHT22;32377;52.182;5.398;2022-09-12T07:41:27;16.40;99.90
46652;DHT22;32377;52.182;5.398;2022-09-12T07:43:58;16.50;99.90
46652;DHT22;32377;52.182;5.398;2022-09-12T07:46:25;16.60;99.90
46652;DHT22;32377;52.182;5.398;2022-09-12T07:48:52;16.60;99.90
46652;DHT22;32377;52.182;5.398;2022-09-12T07:51:18;16.70;99.90
46652;DHT22;32377;52.182;5.398;2022-09-12T07:53:44;16.80;99.90
46652;DHT22;32377;52.182;5.398;2022-09-12T07:56:11;16.80;99.90
46652;DHT22;32377;52.182;5.398;2022-09-12T07:58:38;17.00;99.90
46652;DHT22;32377;52.182;5.398;2022-09-12T08:01:13;17.00;99.90
46652;DHT22;32377;52.182;5.398;2022-09-12T08:03:43;17.10;99.90
46652;DHT22;32377;52.182;5.398;2022-09-12T08:06:11;17.20;99.90
46652;DHT22;32377;52.182;5.398;2022-09-12T08:08:39;17.20;99.90
46652;DHT22;32377;52.182;5.398;2022-09-12T08:11:07;17.40;99.90
46652;DHT22;32377;52.182;5.398;2022-09-12T08:13:35;17.60;99.90
46652;DHT22;32377;52.182;5.398;2022-09-12T08:16:03;17.70;99.90
46652;DHT22;32377;52.182;5.398;2022-09-12T08:18:30;17.70;99.90
46652;DHT22;32377;52.182;5.398;2022-09-12T08:21:02;17.80;99.90
46652;DHT22;32377;52.182;5.398;2022-09-12T08:23:28;17.90;99.90
46652;DHT22;32377;52.182;5.398;2022-09-12T08:25:57;18.00;99.90
46652;DHT22;32377;52.182;5.398;2022-09-12T08:28:24;18.10;99.90
46652;DHT22;32377;52.182;5.398;2022-09-12T08:30:50;18.20;99.90
46652;DHT22;32377;52.182;5.398;2022-09-12T08:33:17;18.40;99.90
46652;DHT22;32377;52.182;5.398;2022-09-12T08:35:42;18.50;99.90
46652;DHT22;32377;52.182;5.398;2022-09-12T08:38:08;18.60;99.90
46652;DHT22;32377;52.182;5.398;2022-09-12T08:40:52;18.70;99.90
46652;DHT22;32377;52.182;5.398;2022-09-12T08:49:37;18.90;99.90
46652;DHT22;32377;52.182;5.398;2022-09-12T08:52:14;19.10;99.90
46652;DHT22;32377;52.182;5.398;2022-09-12T08:54:42;19.20;99.90
46652;DHT22;32377;52.182;5.398;2022-09-12T08:57:10;19.30;99.90
46652;DHT22;32377;52.182;5.398;2022-09-12T08:59:41;19.30;99.90
46652;DHT22;32377;52.182;5.398;2022-09-12T09:05:22;19.40;99.90
46652;DHT22;32377;52.182;5.398;2022-09-12T09:08:04;19.50;99.90
46652;DHT22;32377;52.182;5.398;2022-09-12T09:10:47;19.60;99.90
46652;DHT22;32377;52.182;5.398;2022-09-12T09:16:37;19.80;99.90
46652;DHT22;32377;52.182;5.398;2022-09-12T09:19:11;19.80;99.90
46652;DHT22;32377;52.182;5.398;2022-09-12T09:22:04;19.90;99.90
46652;DHT22;32377;52.182;5.398;2022-09-12T09:24:40;20.00;99.90
46652;DHT22;32377;52.182;5.398;2022-09-12T09:29:44;20.20;99.90
46652;DHT22;32377;52.182;5.398;2022-09-12T09:32:16;20.20;99.90
46652;DHT22;32377;52.182;5.398;2022-09-12T09:34:43;20.30;99.90
46652;DHT22;32377;52.182;5.398;2022-09-12T09:37:20;20.30;99.90
46652;DHT22;32377;52.182;5.398;2022-09-12T09:40:05;20.30;99.90
46652;DHT22;32377;52.182;5.398;2022-09-12T09:42:59;20.40;99.90
46652;DHT22;32377;52.182;5.398;2022-09-12T09:45:27;20.40;99.90
46652;DHT22;32377;52.182;5.398;2022-09-12T09:48:00;20.50;99.90
46652;DHT22;32377;52.182;5.398;2022-09-12T09:50:28;20.60;99.90
46652;DHT22;32377;52.182;5.398;2022-09-12T09:52:56;20.70;99.90
46652;DHT22;32377;52.182;5.398;2022-09-12T09:55:29;20.70;99.90
46652;DHT22;32377;52.182;5.398;2022-09-12T09:57:57;20.80;99.90
46652;DHT22;32377;52.182;5.398;2022-09-12T10:00:34;20.80;99.90
46652;DHT22;32377;52.182;5.398;2022-09-12T10:05:54;20.90;99.90
46652;DHT22;32377;52.182;5.398;2022-09-12T10:08:33;20.90;99.90
46652;DHT22;32377;52.182;5.398;2022-09-12T10:11:16;21.10;99.90
46652;DHT22;32377;52.182;5.398;2022-09-12T10:16:20;21.30;99.90
46652;DHT22;32377;52.182;5.398;2022-09-12T10:18:47;21.40;99.90
46652;DHT22;32377;52.182;5.398;2022-09-12T10:24:00;21.50;99.90
46652;DHT22;32377;52.182;5.398;2022-09-12T10:26:32;21.50;99.90
46652;DHT22;32377;52.182;5.398;2022-09-12T10:29:03;21.50;99.90
46652;DHT22;32377;52.182;5.398;2022-09-12T10:31:40;21.60;99.90
46652;DHT22;32377;52.182;5.398;2022-09-12T10:36:58;21.50;99.90
46652;DHT22;32377;52.182;5.398;2022-09-12T10:39:24;21.50;99.90
46652;DHT22;32377;52.182;5.398;2022-09-12T10:41:50;21.50;99.90
46652;DHT22;32377;52.182;5.398;2022-09-12T10:44:26;21.50;99.90
46652;DHT22;32377;52.182;5.398;2022-09-12T10:46:52;21.60;99.90
46652;DHT22;32377;52.182;5.398;2022-09-12T10:49:21;21.70;99.90
46652;DHT22;32377;52.182;5.398;2022-09-12T10:51:48;21.70;99.90
46652;DHT22;32377;52.182;5.398;2022-09-12T10:54:16;21.90;99.90
46652;DHT22;32377;52.182;5.398;2022-09-12T11:05:52;22.10;99.90
46652;DHT22;32377;52.182;5.398;2022-09-12T11:17:15;22.40;99.90
46652;DHT22;32377;52.182;5.398;2022-09-12T11:20:20;22.50;99.90
46652;DHT22;32377;52.182;5.398;2022-09-12T11:25:33;22.50;99.90
46652;DHT22;32377;52.182;5.398;2022-09-12T11:28:05;22.50;99.90
46652;DHT22;32377;52.182;5.398;2022-09-12T11:33:44;22.70;99.90
46652;DHT22;32377;52.182;5.398;2022-09-12T11:36:26;22.70;99.90
46652;DHT22;32377;52.182;5.398;2022-09-12T11:41:40;22.90;99.90
46652;DHT22;32377;52.182;5.398;2022-09-12T11:46:42;22.90;99.90
46652;DHT22;32377;52.182;5.398;2022-09-12T11:51:56;23.00;99.90
46652;DHT22;32377;52.182;5.398;2022-09-12T11:54:39;22.90;99.90
46652;DHT22;32377;52.182;5.398;2022-09-12T11:59:56;23.00;99.90
46652;DHT22;32377;52.182;5.398;2022-09-12T12:02:32;23.10;99.90
46652;DHT22;32377;52.182;5.398;2022-09-12T12:05:24;23.10;99.90
46652;DHT22;32377;52.182;5.398;2022-09-12T12:07:57;23.10;99.90
46652;DHT22;32377;52.182;5.398;2022-09-12T12:10:34;23.20;99.90
46652;DHT22;32377;52.182;5.398;2022-09-12T12:13:04;23.20;99.90
46652;DHT22;32377;52.182;5.398;2022-09-12T12:15:34;23.20;99.90
46652;DHT22;32377;52.182;5.398;2022-09-12T12:18:06;23.30;99.90
46652;DHT22;32377;52.182;5.398;2022-09-12T12:20:32;23.30;99.90
46652;DHT22;32377;52.182;5.398;2022-09-12T12:22:59;23.30;99.90
46652;DHT22;32377;52.182;5.398;2022-09-12T12:25:39;23.20;99.90
46652;DHT22;32377;52.182;5.398;2022-09-12T12:28:05;23.30;99.90
46652;DHT22;32377;52.182;5.398;2022-09-12T12:33:03;23.30;99.90
46652;DHT22;32377;52.182;5.398;2022-09-12T12:38:46;23.40;99.90
46652;DHT22;32377;52.182;5.398;2022-09-12T12:43:47;23.50;99.90
46652;DHT22;32377;52.182;5.398;2022-09-12T12:46:14;23.40;99.90
46652;DHT22;32377;52.182;5.398;2022-09-12T12:59:49;23.70;99.90
46652;DHT22;32377;52.182;5.398;2022-09-12T13:02:26;23.60;99.90
46652;DHT22;32377;52.182;5.398;2022-09-12T13:04:53;23.60;99.90
46652;DHT22;32377;52.182;5.398;2022-09-12T13:07:29;23.60;99.90
46652;DHT22;32377;52.182;5.398;2022-09-12T13:09:56;23.60;99.90
46652;DHT22;32377;52.182;5.398;2022-09-12T13:12:35;23.60;99.90
46652;DHT22;32377;52.182;5.398;2022-09-12T13:15:05;23.70;99.90
46652;DHT22;32377;52.182;5.398;2022-09-12T13:17:49;23.70;99.90
46652;DHT22;32377;52.182;5.398;2022-09-12T13:20:18;23.80;99.90
46652;DHT22;32377;52.182;5.398;2022-09-12T13:22:48;23.80;99.90
46652;DHT22;32377;52.182;5.398;2022-09-12T13:30:30;23.90;99.90
46652;DHT22;32377;52.182;5.398;2022-09-12T13:32:58;23.90;99.90
46652;DHT22;32377;52.182;5.398;2022-09-12T13:43:45;23.80;99.90
46652;DHT22;32377;52.182;5.398;2022-09-12T13:46:17;23.80;99.90
46652;DHT22;32377;52.182;5.398;2022-09-12T13:48:46;23.80;99.90
46652;DHT22;32377;52.182;5.398;2022-09-12T13:51:24;23.80;99.90
46652;DHT22;32377;52.182;5.398;2022-09-12T13:53:52;23.80;99.90
46652;DHT22;32377;52.182;5.398;2022-09-12T13:56:19;23.80;99.90
46652;DHT22;32377;52.182;5.398;2022-09-12T13:58:58;23.80;99.90
46652;DHT22;32377;52.182;5.398;2022-09-12T14:01:42;23.80;99.90
46652;DHT22;32377;52.182;5.398;2022-09-12T14:04:17;23.80;99.90
46652;DHT22;32377;52.182;5.398;2022-09-12T14:07:09;23.70;99.90
46652;DHT22;32377;52.182;5.398;2022-09-12T14:09:42;23.70;99.90
46652;DHT22;32377;52.182;5.398;2022-09-12T14:12:35;23.60;99.90
46652;DHT22;32377;52.182;5.398;2022-09-12T14:15:02;23.60;99.90
46652;DHT22;32377;52.182;5.398;2022-09-12T14:17:33;23.80;99.90
46652;DHT22;32377;52.182;5.398;2022-09-12T14:20:01;23.80;99.90
46652;DHT22;32377;52.182;5.398;2022-09-12T14:22:29;23.80;99.90
46652;DHT22;32377;52.182;5.398;2022-09-12T14:24:56;23.80;99.90
46652;DHT22;32377;52.182;5.398;2022-09-12T14:27:30;23.80;99.90
46652;DHT22;32377;52.182;5.398;2022-09-12T14:30:19;23.80;99.90
46652;DHT22;32377;52.182;5.398;2022-09-12T14:33:02;23.80;99.90
46652;DHT22;32377;52.182;5.398;2022-09-12T14:35:28;23.90;99.90
46652;DHT22;32377;52.182;5.398;2022-09-12T14:37:54;23.90;99.90
46652;DHT22;32377;52.182;5.398;2022-09-12T14:40:22;23.90;99.90
46652;DHT22;32377;52.182;5.398;2022-09-12T14:42:49;23.90;99.90
46652;DHT22;32377;52.182;5.398;2022-09-12T14:45:23;24.00;99.90
46652;DHT22;32377;52.182;5.398;2022-09-12T14:47:50;24.20;99.90
46652;DHT22;32377;52.182;5.398;2022-09-12T14:50:26;24.10;99.90
46652;DHT22;32377;52.182;5.398;2022-09-12T14:53:04;24.10;99.90
46652;DHT22;32377;52.182;5.398;2022-09-12T14:55:32;24.20;99.90
46652;DHT22;32377;52.182;5.398;2022-09-12T15:00:54;23.80;99.90
46652;DHT22;32377;52.182;5.398;2022-09-12T15:03:28;23.80;99.90
46652;DHT22;32377;52.182;5.398;2022-09-12T15:05:54;23.80;99.90
46652;DHT22;32377;52.182;5.398;2022-09-12T15:08:20;23.80;99.90
46652;DHT22;32377;52.182;5.398;2022-09-12T15:10:46;23.70;99.90
46652;DHT22;32377;52.182;5.398;2022-09-12T15:13:17;23.80;99.90
46652;DHT22;32377;52.182;5.398;2022-09-12T15:15:48;23.70;99.90
46652;DHT22;32377;52.182;5.398;2022-09-12T15:18:15;23.60;99.90
46652;DHT22;32377;52.182;5.398;2022-09-12T15:20:42;23.60;99.90
46652;DHT22;32377;52.182;5.398;2022-09-12T15:23:18;23.50;99.90
46652;DHT22;32377;52.182;5.398;2022-09-12T15:25:45;23.50;99.90
46652;DHT22;32377;52.182;5.398;2022-09-12T15:28:19;23.50;99.90
46652;DHT22;32377;52.182;5.398;2022-09-12T15:30:46;23.40;99.90
46652;DHT22;32377;52.182;5.398;2022-09-12T15:33:14;23.40;99.90
46652;DHT22;32377;52.182;5.398;2022-09-12T15:35:40;23.40;99.90
46652;DHT22;32377;52.182;5.398;2022-09-12T15:38:05;23.30;99.90
46652;DHT22;32377;52.182;5.398;2022-09-12T15:40:31;23.40;99.90
46652;DHT22;32377;52.182;5.398;2022-09-12T15:42:56;23.40;99.90
46652;DHT22;32377;52.182;5.398;2022-09-12T15:45:28;23.30;99.90
46652;DHT22;32377;52.182;5.398;2022-09-12T15:47:55;23.20;99.90
46652;DHT22;32377;52.182;5.398;2022-09-12T15:50:21;23.20;99.90
46652;DHT22;32377;52.182;5.398;2022-09-12T15:52:47;23.30;99.90
46652;DHT22;32377;52.182;5.398;2022-09-12T15:55:21;23.30;99.90
46652;DHT22;32377;52.182;5.398;2022-09-12T15:57:47;23.30;99.90
46652;DHT22;32377;52.182;5.398;2022-09-12T16:00:15;23.40;99.90
46652;DHT22;32377;52.182;5.398;2022-09-12T16:02:42;23.30;99.90
46652;DHT22;32377;52.182;5.398;2022-09-12T16:05:13;23.40;99.90
46652;DHT22;32377;52.182;5.398;2022-09-12T16:07:41;23.30;99.90
46652;DHT22;32377;52.182;5.398;2022-09-12T16:10:07;23.30;99.90
46652;DHT22;32377;52.182;5.398;2022-09-12T16:12:33;23.30;99.90
46652;DHT22;32377;52.182;5.398;2022-09-12T16:14:58;23.30;99.90
46652;DHT22;32377;52.182;5.398;2022-09-12T16:17:24;23.20;99.90
46652;DHT22;32377;52.182;5.398;2022-09-12T16:19:50;23.20;99.90
46652;DHT22;32377;52.182;5.398;2022-09-12T16:22:16;23.10;99.90
46652;DHT22;32377;52.182;5.398;2022-09-12T16:24:41;23.10;99.90
46652;DHT22;32377;52.182;5.398;2022-09-12T16:27:07;23.10;99.90
46652;DHT22;32377;52.182;5.398;2022-09-12T16:29:32;23.00;99.90
46652;DHT22;32377;52.182;5.398;2022-09-12T16:31:58;22.90;99.90
46652;DHT22;32377;52.182;5.398;2022-09-12T16:34:23;22.90;99.90
46652;DHT22;32377;52.182;5.398;2022-09-12T16:36:49;22.90;99.90
46652;DHT22;32377;52.182;5.398;2022-09-12T16:39:14;22.90;99.90
46652;DHT22;32377;52.182;5.398;2022-09-12T16:41:40;22.80;99.90
46652;DHT22;32377;52.182;5.398;2022-09-12T16:44:07;22.80;99.90
46652;DHT22;32377;52.182;5.398;2022-09-12T16:46:33;22.80;99.90
46652;DHT22;32377;52.182;5.398;2022-09-12T16:48:59;22.70;99.90
46652;DHT22;32377;52.182;5.398;2022-09-12T16:51:31;22.80;99.90
46652;DHT22;32377;52.182;5.398;2022-09-12T16:53:57;22.70;99.90
46652;DHT22;32377;52.182;5.398;2022-09-12T16:56:23;22.70;99.90
46652;DHT22;32377;52.182;5.398;2022-09-12T16:58:48;22.80;99.90
46652;DHT22;32377;52.182;5.398;2022-09-12T17:01:17;22.80;99.90
46652;DHT22;32377;52.182;5.398;2022-09-12T17:03:42;22.80;99.90
46652;DHT22;32377;52.182;5.398;2022-09-12T17:06:10;22.70;99.90
46652;DHT22;32377;52.182;5.398;2022-09-12T17:08:38;22.80;99.90
46652;DHT22;32377;52.182;5.398;2022-09-12T17:11:10;22.70;99.90
46652;DHT22;32377;52.182;5.398;2022-09-12T17:13:36;22.60;99.90
46652;DHT22;32377;52.182;5.398;2022-09-12T17:16:11;22.60;99.90
46652;DHT22;32377;52.182;5.398;2022-09-12T17:18:37;22.50;99.90
46652;DHT22;32377;52.182;5.398;2022-09-12T17:21:04;22.40;99.90
46652;DHT22;32377;52.182;5.398;2022-09-12T17:23:30;22.40;99.90
46652;DHT22;32377;52.182;5.398;2022-09-12T17:25:55;22.30;99.90
46652;DHT22;32377;52.182;5.398;2022-09-12T17:28:21;22.30;99.90
46652;DHT22;32377;52.182;5.398;2022-09-12T17:30:54;22.20;99.90
46652;DHT22;32377;52.182;5.398;2022-09-12T17:33:20;22.20;99.90
46652;DHT22;32377;52.182;5.398;2022-09-12T17:35:46;22.10;99.90
46652;DHT22;32377;52.182;5.398;2022-09-12T17:38:11;22.00;99.90
46652;DHT22;32377;52.182;5.398;2022-09-12T17:40:37;22.00;99.90
46652;DHT22;32377;52.182;5.398;2022-09-12T17:43:02;21.90;99.90
46652;DHT22;32377;52.182;5.398;2022-09-12T17:45:28;21.90;99.90
46652;DHT22;32377;52.182;5.398;2022-09-12T17:47:54;21.80;99.90
46652;DHT22;32377;52.182;5.398;2022-09-12T17:50:19;21.70;99.90
46652;DHT22;32377;52.182;5.398;2022-09-12T17:52:45;21.70;99.90
46652;DHT22;32377;52.182;5.398;2022-09-12T17:55:12;21.60;99.90
46652;DHT22;32377;52.182;5.398;2022-09-12T17:57:38;21.60;99.90
46652;DHT22;32377;52.182;5.398;2022-09-12T18:00:04;21.50;99.90